createdAt,value
2023-01-24T00:00:23.142Z,20.5
2023-01-24T00:01:25.643Z,20.8
2023-01-24T00:02:27.935Z,20.5
2023-01-24T00:03:30.765Z,20.6
2023-01-24T00:04:33.745Z,20.5
2023-01-24T00:05:36.275Z,20.6
2023-01-24T00:06:38.771Z,20.7
2023-01-24T00:07:41.456Z,20.6
2023-01-24T00:08:43.943Z,20.7
2023-01-24T00:09:45.623Z,20.5
2023-01-24T00:10:48.108Z,20.6
2023-01-24T00:11:50.845Z,20.7
2023-01-24T00:12:53.393Z,20.7
2023-01-24T00:13:55.638Z,20.6
2023-01-24T00:14:58.682Z,20.9
2023-01-24T00:16:00.921Z,20.7
2023-01-24T00:17:03.941Z,20.8
2023-01-24T00:18:06.230Z,20.8
2023-01-24T00:19:08.770Z,20.7
2023-01-24T00:20:10.992Z,20.7
2023-01-24T00:21:13.229Z,20.6
2023-01-24T00:22:15.822Z,20.6
2023-01-24T00:23:18.345Z,20.8
2023-01-24T00:24:20.921Z,20.8
2023-01-24T00:25:23.568Z,20.9
2023-01-24T00:26:26.303Z,20.6
2023-01-24T00:27:28.876Z,20.7
2023-01-24T00:28:31.362Z,20.6
2023-01-24T00:29:33.875Z,20.9
2023-01-24T00:30:36.940Z,20.9
2023-01-24T00:31:39.569Z,20.6
2023-01-24T00:32:43.009Z,20.9
2023-01-24T00:33:45.233Z,20.8
2023-01-24T00:34:47.807Z,20.8
2023-01-24T00:35:49.756Z,20.7
2023-01-24T00:36:52.177Z,20.6
2023-01-24T00:37:54.759Z,20.8
2023-01-24T00:38:57.330Z,20.8
2023-01-24T00:39:59.816Z,20.8
2023-01-24T00:41:02.119Z,20.7
2023-01-24T00:42:04.370Z,21
2023-01-24T00:43:06.719Z,20.7
2023-01-24T00:44:08.685Z,20.9
2023-01-24T00:45:11.278Z,20.8
2023-01-24T00:46:14.248Z,21
2023-01-24T00:47:17.033Z,20.9
2023-01-24T00:48:19.535Z,20.8
2023-01-24T00:49:21.225Z,20.7
2023-01-24T00:50:24.230Z,20.9
2023-01-24T00:51:27.007Z,20.8
2023-01-24T00:52:30.061Z,20.7
2023-01-24T00:53:32.860Z,20.8
2023-01-24T00:54:35.415Z,20.8
2023-01-24T00:55:37.657Z,20.8
2023-01-24T00:56:40.160Z,20.8
2023-01-24T00:57:42.867Z,20.8
2023-01-24T00:58:45.188Z,20.8
2023-01-24T00:59:47.726Z,20.7
2023-01-24T01:00:49.911Z,20.8
2023-01-24T01:01:52.794Z,20.7
2023-01-24T01:02:55.311Z,20.9
2023-01-24T01:03:57.809Z,20.8
2023-01-24T01:05:00.322Z,20.7
2023-01-24T01:06:02.830Z,20.7
2023-01-24T01:07:05.367Z,20.9
2023-01-24T01:08:07.884Z,21
2023-01-24T01:09:10.124Z,20.8
2023-01-24T01:10:12.645Z,20.8
2023-01-24T01:11:15.178Z,20.9
2023-01-24T01:12:17.665Z,20.9
2023-01-24T01:13:19.961Z,21.1
2023-01-24T01:14:22.782Z,20.9
2023-01-24T01:15:24.983Z,20.9
2023-01-24T01:16:27.216Z,21
2023-01-24T01:17:30.236Z,20.7
2023-01-24T01:18:32.800Z,21.1
2023-01-24T01:19:35.015Z,21.1
2023-01-24T01:20:37.523Z,21
2023-01-24T01:21:40.035Z,20.9
2023-01-24T01:22:42.569Z,20.8
2023-01-24T01:23:44.853Z,21
2023-01-24T01:24:47.659Z,21
2023-01-24T01:25:50.190Z,21
2023-01-24T01:26:52.844Z,20.9
2023-01-24T01:27:55.345Z,20.9
2023-01-24T01:28:57.841Z,20.9
2023-01-24T01:30:00.517Z,20.9
2023-01-24T01:31:02.943Z,21
2023-01-24T01:32:06.265Z,20.9
2023-01-24T01:33:09.479Z,21
2023-01-24T01:34:12.023Z,21.1
2023-01-24T01:35:14.278Z,21
2023-01-24T01:36:16.795Z,21.1
2023-01-24T01:37:19.226Z,21.1
2023-01-24T01:38:21.504Z,20.8
2023-01-24T01:39:23.989Z,21.1
2023-01-24T01:40:26.491Z,21.1
2023-01-24T01:41:29.020Z,20.9
2023-01-24T01:42:31.520Z,21
2023-01-24T01:43:33.485Z,21.1
2023-01-24T01:44:36.248Z,21.1
2023-01-24T01:45:38.392Z,21
2023-01-24T01:46:41.246Z,21.1
2023-01-24T01:47:43.755Z,21
2023-01-24T01:48:46.757Z,21.1
2023-01-24T01:49:49.263Z,20.9
2023-01-24T01:50:51.754Z,20.8
2023-01-24T01:51:54.367Z,21
2023-01-24T01:52:56.568Z,21
2023-01-24T01:53:59.083Z,21.2
2023-01-24T01:55:01.647Z,21.2
2023-01-24T01:56:04.153Z,21
2023-01-24T01:57:06.696Z,20.9
2023-01-24T01:58:08.919Z,21
2023-01-24T01:59:11.419Z,21.1
2023-01-24T02:00:13.692Z,21.1
2023-01-24T02:01:16.121Z,21
2023-01-24T02:02:19.878Z,21.1
2023-01-24T02:03:22.419Z,21.1
2023-01-24T02:04:25.413Z,21
2023-01-24T02:05:27.661Z,21
2023-01-24T02:06:30.154Z,21.3
2023-01-24T02:07:32.681Z,21.2
2023-01-24T02:08:34.621Z,21
2023-01-24T02:09:36.586Z,21
2023-01-24T02:10:38.808Z,21
2023-01-24T02:11:40.797Z,21
2023-01-24T02:12:43.099Z,21.1
2023-01-24T02:13:45.365Z,21
2023-01-24T02:14:47.880Z,21.1
2023-01-24T02:15:50.112Z,21.2
2023-01-24T02:16:52.793Z,20.9
2023-01-24T02:17:55.017Z,21.1
2023-01-24T02:18:57.408Z,21.1
2023-01-24T02:20:00.430Z,21.1
2023-01-24T02:21:02.510Z,21
2023-01-24T02:22:04.514Z,21.2
2023-01-24T02:23:07.010Z,21.2
2023-01-24T02:24:09.585Z,21.1
2023-01-24T02:25:12.528Z,21
2023-01-24T02:26:15.042Z,21.1
2023-01-24T02:27:17.639Z,21.1
2023-01-24T02:28:20.223Z,21.2
2023-01-24T02:29:22.430Z,20.9
2023-01-24T02:30:24.861Z,21
2023-01-24T02:31:27.479Z,21.1
2023-01-24T02:32:30.451Z,21.1
2023-01-24T02:33:32.961Z,20.9
2023-01-24T02:34:35.521Z,21.1
2023-01-24T02:35:38.268Z,21
2023-01-24T02:36:40.538Z,20.9
2023-01-24T02:37:42.935Z,21.1
2023-01-24T02:38:45.497Z,20.9
2023-01-24T02:39:48.032Z,21.1
2023-01-24T02:40:50.281Z,21
2023-01-24T02:41:52.518Z,21.2
2023-01-24T02:42:55.020Z,21
2023-01-24T02:43:57.277Z,21.1
2023-01-24T02:44:59.560Z,21.1
2023-01-24T02:46:02.164Z,21.1
2023-01-24T02:47:04.674Z,21.1
2023-01-24T02:48:06.940Z,21.1
2023-01-24T02:49:09.442Z,21
2023-01-24T02:50:11.400Z,21
2023-01-24T02:51:14.415Z,21.1
2023-01-24T02:52:16.947Z,21.2
2023-01-24T02:53:19.443Z,21
2023-01-24T02:54:21.950Z,21
2023-01-24T02:55:24.542Z,21.1
2023-01-24T02:56:28.892Z,21.1
2023-01-24T02:57:31.198Z,21.2
2023-01-24T02:58:33.701Z,20.9
2023-01-24T02:59:35.915Z,21.1
2023-01-24T03:00:38.151Z,21.2
2023-01-24T03:01:40.412Z,21.1
2023-01-24T03:02:42.670Z,21.1
2023-01-24T03:03:45.522Z,21
2023-01-24T03:04:48.065Z,21
2023-01-24T03:05:50.318Z,21.1
2023-01-24T03:06:53.326Z,21.2
2023-01-24T03:07:55.284Z,21.2
2023-01-24T03:08:57.778Z,21.2
2023-01-24T03:09:59.737Z,21.1
2023-01-24T03:11:01.972Z,21.2
2023-01-24T03:12:03.906Z,21.2
2023-01-24T03:13:06.160Z,21.2
2023-01-24T03:14:08.383Z,21
2023-01-24T03:15:10.884Z,21.3
2023-01-24T03:16:13.410Z,21.1
2023-01-24T03:17:16.175Z,21.1
2023-01-24T03:18:18.688Z,21.2
2023-01-24T03:19:21.212Z,21.2
2023-01-24T03:20:23.721Z,21.2
2023-01-24T03:21:25.963Z,21.2
2023-01-24T03:22:28.931Z,21.3
2023-01-24T03:23:31.157Z,21
2023-01-24T03:24:33.702Z,21.1
2023-01-24T03:25:36.219Z,21.2
2023-01-24T03:26:38.435Z,21.2
2023-01-24T03:27:40.912Z,21.3
2023-01-24T03:28:43.163Z,21.2
2023-01-24T03:29:45.394Z,21.2
2023-01-24T03:30:47.908Z,21.2
2023-01-24T03:31:50.505Z,21.3
2023-01-24T03:32:53.607Z,21.2
2023-01-24T03:33:56.120Z,21.1
2023-01-24T03:34:58.762Z,21.2
2023-01-24T03:36:00.976Z,21.2
2023-01-24T03:37:03.431Z,21.1
2023-01-24T03:38:06.438Z,21.2
2023-01-24T03:39:08.659Z,21.2
2023-01-24T03:40:11.183Z,21.1
2023-01-24T03:41:13.735Z,21.4
2023-01-24T03:42:15.954Z,21.3
2023-01-24T03:43:18.170Z,21.3
2023-01-24T03:44:20.370Z,21.3
2023-01-24T03:45:23.152Z,21.3
2023-01-24T03:46:26.461Z,21.1
2023-01-24T03:47:28.995Z,21.2
2023-01-24T03:48:31.548Z,21.1
2023-01-24T03:49:33.810Z,21.3
2023-01-24T03:50:35.873Z,21.1
2023-01-24T03:51:38.375Z,21.3
2023-01-24T03:52:40.702Z,21.2
2023-01-24T03:53:43.885Z,21.1
2023-01-24T03:54:45.924Z,21.3
2023-01-24T03:55:48.182Z,21
2023-01-24T03:56:50.939Z,21.1
2023-01-24T03:57:53.463Z,21.2
2023-01-24T03:58:56.005Z,21.3
2023-01-24T03:59:58.378Z,21.1
2023-01-24T04:01:01.014Z,21.1
2023-01-24T04:02:03.835Z,21.2
2023-01-24T04:03:06.312Z,21.2
2023-01-24T04:04:08.563Z,21.1
2023-01-24T04:05:10.770Z,21.3
2023-01-24T04:06:13.455Z,21.2
2023-01-24T04:07:25.998Z,21.5
2023-01-24T04:08:20.961Z,21.3
2023-01-24T04:09:23.847Z,21.2
2023-01-24T04:10:26.336Z,21.5
2023-01-24T04:11:28.576Z,21.2
2023-01-24T04:12:30.816Z,21.3
2023-01-24T04:13:33.371Z,21.2
2023-01-24T04:14:35.579Z,21.2
2023-01-24T04:15:38.108Z,21.2
2023-01-24T04:16:40.644Z,21.3
2023-01-24T04:17:43.132Z,21.2
2023-01-24T04:18:45.701Z,21.1
2023-01-24T04:19:48.190Z,21.3
2023-01-24T04:20:50.702Z,21.2
2023-01-24T04:21:52.972Z,21.3
2023-01-24T04:22:55.281Z,21.1
2023-01-24T04:23:57.804Z,21.3
2023-01-24T04:25:01.045Z,21.1
2023-01-24T04:26:03.028Z,20.9
2023-01-24T04:27:05.566Z,21
2023-01-24T04:28:08.057Z,21.1
2023-01-24T04:29:09.973Z,21.2
2023-01-24T04:30:12.225Z,21.1
2023-01-24T04:31:14.674Z,21.1
2023-01-24T04:32:17.770Z,21
2023-01-24T04:33:20.271Z,21.1
2023-01-24T04:34:22.769Z,20.9
2023-01-24T04:35:25.627Z,21.2
2023-01-24T04:36:28.281Z,21.1
2023-01-24T04:37:30.899Z,21.3
2023-01-24T04:38:33.101Z,21.2
2023-01-24T04:39:35.599Z,20.9
2023-01-24T04:40:38.576Z,21.1
2023-01-24T04:41:41.111Z,21.1
2023-01-24T04:42:43.621Z,21
2023-01-24T04:43:46.168Z,20.9
2023-01-24T04:44:48.396Z,21.1
2023-01-24T04:45:50.331Z,21
2023-01-24T04:46:52.504Z,21.3
2023-01-24T04:47:55.237Z,21
2023-01-24T04:48:57.509Z,21
2023-01-24T04:50:00.186Z,21.1
2023-01-24T04:51:02.730Z,21
2023-01-24T04:52:05.228Z,20.9
2023-01-24T04:53:07.574Z,21
2023-01-24T04:54:09.783Z,21.1
2023-01-24T04:55:12.009Z,21
2023-01-24T04:56:15.009Z,21
2023-01-24T04:57:17.510Z,20.8
2023-01-24T04:58:19.758Z,21.1
2023-01-24T04:59:22.273Z,20.8
2023-01-24T05:00:24.888Z,20.9
2023-01-24T05:01:27.415Z,21.1
2023-01-24T05:02:29.932Z,20.9
2023-01-24T05:03:32.157Z,21.1
2023-01-24T05:04:34.704Z,20.9
2023-01-24T05:05:37.242Z,21
2023-01-24T05:06:39.757Z,21
2023-01-24T05:07:42.255Z,20.8
2023-01-24T05:08:44.639Z,21
2023-01-24T05:09:47.142Z,20.9
2023-01-24T05:10:49.104Z,21
2023-01-24T05:11:52.088Z,21
2023-01-24T05:12:54.344Z,21
2023-01-24T05:13:56.849Z,20.9
2023-01-24T05:14:59.094Z,20.8
2023-01-24T05:16:01.350Z,21
2023-01-24T05:17:03.913Z,20.9
2023-01-24T05:18:06.809Z,21
2023-01-24T05:19:09.316Z,21.2
2023-01-24T05:20:11.809Z,21
2023-01-24T05:21:14.369Z,20.9
2023-01-24T05:22:17.230Z,21.1
2023-01-24T05:23:19.738Z,21
2023-01-24T05:24:22.370Z,20.9
2023-01-24T05:25:24.892Z,21
2023-01-24T05:26:27.252Z,20.9
2023-01-24T05:27:30.155Z,21
2023-01-24T05:28:32.105Z,20.9
2023-01-24T05:29:34.613Z,20.9
2023-01-24T05:30:37.185Z,21
2023-01-24T05:31:40.000Z,20.8
2023-01-24T05:32:42.847Z,21.1
2023-01-24T05:33:45.101Z,21
2023-01-24T05:34:47.635Z,20.8
2023-01-24T05:35:49.869Z,21.1
2023-01-24T05:36:52.348Z,21
2023-01-24T05:37:54.539Z,20.8
2023-01-24T05:38:56.776Z,20.7
2023-01-24T05:39:59.385Z,20.7
2023-01-24T05:41:01.949Z,20.9
2023-01-24T05:42:04.165Z,20.8
2023-01-24T05:43:07.165Z,20.8
2023-01-24T05:44:10.048Z,21.1
2023-01-24T05:45:12.691Z,21.2
2023-01-24T05:46:15.248Z,21
2023-01-24T05:47:18.097Z,21
2023-01-24T05:48:20.683Z,20.7
2023-01-24T05:49:23.209Z,21
2023-01-24T05:50:25.713Z,20.8
2023-01-24T05:51:28.225Z,20.9
2023-01-24T05:52:30.742Z,20.9
2023-01-24T05:53:32.947Z,21
2023-01-24T05:54:35.605Z,20.9
2023-01-24T05:55:38.055Z,21.1
2023-01-24T05:56:40.348Z,21
2023-01-24T05:57:42.963Z,21
2023-01-24T05:58:45.776Z,20.8
2023-01-24T05:59:48.315Z,21.1
2023-01-24T06:00:50.871Z,20.7
2023-01-24T06:01:53.126Z,20.8
2023-01-24T06:02:55.773Z,21.1
2023-01-24T06:03:58.827Z,21
2023-01-24T06:05:00.791Z,20.8
2023-01-24T06:06:03.042Z,20.9
2023-01-24T06:07:05.279Z,20.9
2023-01-24T06:08:07.797Z,21
2023-01-24T06:09:10.519Z,20.7
2023-01-24T06:10:13.031Z,20.9
2023-01-24T06:11:15.722Z,20.7
2023-01-24T06:12:18.259Z,20.8
2023-01-24T06:13:20.763Z,20.8
2023-01-24T06:14:23.754Z,20.8
2023-01-24T06:15:26.041Z,20.8
2023-01-24T06:16:28.649Z,20.8
2023-01-24T06:17:31.160Z,21
2023-01-24T06:18:33.666Z,20.9
2023-01-24T06:19:35.964Z,20.9
2023-01-24T06:20:38.483Z,20.9
2023-01-24T06:21:41.060Z,20.8
2023-01-24T06:22:43.564Z,20.9
2023-01-24T06:23:45.832Z,20.7
2023-01-24T06:24:48.567Z,20.7
2023-01-24T06:25:51.158Z,20.7
2023-01-24T06:26:53.925Z,20.9
2023-01-24T06:27:56.517Z,20.8
2023-01-24T06:28:58.792Z,20.8
2023-01-24T06:30:02.906Z,21
2023-01-24T06:31:05.116Z,20.8
2023-01-24T06:32:08.328Z,21
2023-01-24T06:33:10.821Z,20.9
2023-01-24T06:34:13.034Z,20.9
2023-01-24T06:35:15.524Z,20.9
2023-01-24T06:36:17.739Z,20.7
2023-01-24T06:37:20.245Z,20.8
2023-01-24T06:38:22.755Z,20.8
2023-01-24T06:39:25.287Z,20.7
2023-01-24T06:40:27.799Z,20.8
2023-01-24T06:41:30.299Z,20.9
2023-01-24T06:42:32.835Z,20.9
2023-01-24T06:43:35.352Z,20.8
2023-01-24T06:44:37.846Z,20.7
2023-01-24T06:45:40.746Z,20.8
2023-01-24T06:46:42.473Z,20.7
2023-01-24T06:47:45.218Z,20.9
2023-01-24T06:48:47.805Z,21
2023-01-24T06:49:50.315Z,20.7
2023-01-24T06:50:52.550Z,20.9
2023-01-24T06:51:55.068Z,20.9
2023-01-24T06:52:57.307Z,20.8
2023-01-24T06:54:00.890Z,20.9
2023-01-24T06:55:04.521Z,20.8
2023-01-24T06:56:06.737Z,20.7
2023-01-24T06:57:09.277Z,20.7
2023-01-24T06:58:11.925Z,20.8
2023-01-24T06:59:14.438Z,20.7
2023-01-24T07:00:16.960Z,20.6
2023-01-24T07:01:19.987Z,20.9
2023-01-24T07:02:22.701Z,20.9
2023-01-24T07:03:24.909Z,20.6
2023-01-24T07:04:27.608Z,20.8
2023-01-24T07:05:29.574Z,20.8
2023-01-24T07:06:32.204Z,20.8
2023-01-24T07:07:34.717Z,20.7
2023-01-24T07:08:37.338Z,20.8
2023-01-24T07:09:39.855Z,20.8
2023-01-24T07:10:42.095Z,20.6
2023-01-24T07:11:44.625Z,20.6
2023-01-24T07:12:46.884Z,20.8
2023-01-24T07:13:49.217Z,20.8
2023-01-24T07:14:51.743Z,21.1
2023-01-24T07:15:54.324Z,20.8
2023-01-24T07:16:57.569Z,20.8
2023-01-24T07:18:00.238Z,20.8
2023-01-24T07:19:02.732Z,20.9
2023-01-24T07:20:05.309Z,20.7
2023-01-24T07:21:07.809Z,21.1
2023-01-24T07:22:10.219Z,20.7
2023-01-24T07:23:12.627Z,20.9
2023-01-24T07:24:15.168Z,20.8
2023-01-24T07:25:18.018Z,20.8
2023-01-24T07:26:20.348Z,20.8
2023-01-24T07:27:22.847Z,20.9
2023-01-24T07:28:25.067Z,20.7
2023-01-24T07:29:27.670Z,20.6
2023-01-24T07:30:30.179Z,20.7
2023-01-24T07:31:32.457Z,20.8
2023-01-24T07:32:37.947Z,20.7
2023-01-24T07:33:40.572Z,20.8
2023-01-24T07:34:42.851Z,20.9
2023-01-24T07:35:45.098Z,20.7
2023-01-24T07:36:47.651Z,20.5
2023-01-24T07:37:50.249Z,20.7
2023-01-24T07:38:52.496Z,20.8
2023-01-24T07:39:54.715Z,20.7
2023-01-24T07:40:57.243Z,20.6
2023-01-24T07:41:59.490Z,20.9
2023-01-24T07:43:02.056Z,20.8
2023-01-24T07:44:04.314Z,20.7
2023-01-24T07:45:06.608Z,20.8
2023-01-24T07:46:09.199Z,20.5
2023-01-24T07:47:12.106Z,20.9
2023-01-24T07:48:14.619Z,20.5
2023-01-24T07:49:17.217Z,20.5
2023-01-24T07:50:19.175Z,20.5
2023-01-24T07:51:21.142Z,20.7
2023-01-24T07:52:23.395Z,20.7
2023-01-24T07:53:26.082Z,20.6
2023-01-24T07:54:28.032Z,20.5
2023-01-24T07:55:30.292Z,20.7
2023-01-24T07:56:32.637Z,20.6
2023-01-24T07:57:35.182Z,20.6
2023-01-24T07:58:37.717Z,20.7
2023-01-24T07:59:40.394Z,20.7
2023-01-24T08:00:43.038Z,20.7
2023-01-24T08:01:45.794Z,20.9
2023-01-24T08:02:48.283Z,20.6
2023-01-24T08:03:50.315Z,20.6
2023-01-24T08:04:52.964Z,20.8
2023-01-24T08:05:55.798Z,20.7
2023-01-24T08:06:58.351Z,20.6
2023-01-24T08:08:00.903Z,20.6
2023-01-24T08:09:03.122Z,20.7
2023-01-24T08:10:05.377Z,20.7
2023-01-24T08:11:07.936Z,20.8
2023-01-24T08:12:10.924Z,20.7
2023-01-24T08:13:13.444Z,20.6
2023-01-24T08:14:15.707Z,20.7
2023-01-24T08:15:17.667Z,20.5
2023-01-24T08:16:19.951Z,20.5
2023-01-24T08:17:22.692Z,20.6
2023-01-24T08:18:24.939Z,20.6
2023-01-24T08:19:46.283Z,20.7
2023-01-24T08:20:32.433Z,20.6
2023-01-24T08:21:35.077Z,20.7
2023-01-24T08:22:43.089Z,20.8
2023-01-24T08:23:42.285Z,20.7
2023-01-24T08:24:45.182Z,20.6
2023-01-24T08:25:47.736Z,20.7
2023-01-24T08:26:50.381Z,20.8
2023-01-24T08:27:52.955Z,20.7
2023-01-24T08:28:55.328Z,20.8
2023-01-24T08:29:57.833Z,20.9
2023-01-24T08:31:00.525Z,20.8
2023-01-24T08:32:03.244Z,20.5
2023-01-24T08:33:06.199Z,20.6
2023-01-24T08:34:08.212Z,20.5
2023-01-24T08:35:10.488Z,20.8
2023-01-24T08:36:12.752Z,20.6
2023-01-24T08:37:15.597Z,20.8
2023-01-24T08:38:17.929Z,20.7
2023-01-24T08:39:24.572Z,20.7
2023-01-24T08:40:25.991Z,20.5
2023-01-24T08:41:31.627Z,20.6
2023-01-24T08:42:34.218Z,20.7
2023-01-24T08:43:36.720Z,20.6
2023-01-24T08:44:39.319Z,20.6
2023-01-24T08:45:41.588Z,20.6
2023-01-24T08:46:43.830Z,20.7
2023-01-24T08:47:46.500Z,20.6
2023-01-24T08:48:49.532Z,20.5
2023-01-24T08:49:51.758Z,20.7
2023-01-24T08:50:54.276Z,20.7
2023-01-24T08:51:56.408Z,20.7
2023-01-24T08:52:58.745Z,20.7
2023-01-24T08:54:01.032Z,20.5
2023-01-24T08:55:03.555Z,20.7
2023-01-24T08:56:05.881Z,20.5
2023-01-24T08:57:08.438Z,20.6
2023-01-24T08:58:11.185Z,20.5
2023-01-24T08:59:13.460Z,20.7
2023-01-24T09:00:15.971Z,20.7
2023-01-24T09:01:18.218Z,20.5
2023-01-24T09:02:20.716Z,20.8
2023-01-24T09:03:23.665Z,20.7
2023-01-24T09:04:26.390Z,20.6
2023-01-24T09:05:28.989Z,20.6
2023-01-24T09:06:32.024Z,20.8
2023-01-24T09:07:34.011Z,20.6
2023-01-24T09:08:36.987Z,20.5
2023-01-24T09:09:39.322Z,20.6
2023-01-24T09:10:41.830Z,20.7
2023-01-24T09:11:44.600Z,20.8
2023-01-24T09:12:46.596Z,20.5
2023-01-24T09:13:48.838Z,20.6
2023-01-24T09:14:51.156Z,20.6
2023-01-24T09:15:53.800Z,20.5
2023-01-24T09:16:56.144Z,20.6
2023-01-24T09:17:58.683Z,20.7
2023-01-24T09:19:01.254Z,20.7
2023-01-24T09:20:03.788Z,20.5
2023-01-24T09:21:05.731Z,20.6
2023-01-24T09:22:07.703Z,20.7
2023-01-24T09:23:09.954Z,20.6
2023-01-24T09:24:12.647Z,20.5
2023-01-24T09:25:15.191Z,20.5
2023-01-24T09:26:17.455Z,20.5
2023-01-24T09:27:19.968Z,20.6
2023-01-24T09:28:22.534Z,20.7
2023-01-24T09:29:24.987Z,20.6
2023-01-24T09:30:27.364Z,20.5
2023-01-24T09:31:31.254Z,20.7
2023-01-24T09:32:34.417Z,20.7
2023-01-24T09:33:39.340Z,20.5
2023-01-24T09:34:42.116Z,20.6
2023-01-24T09:35:44.138Z,20.6
2023-01-24T09:36:46.377Z,20.8
2023-01-24T09:37:48.885Z,20.7
2023-01-24T09:39:04.336Z,20.5
2023-01-24T09:39:56.389Z,20.6
2023-01-24T09:40:58.989Z,20.6
2023-01-24T09:42:10.933Z,20.4
2023-01-24T09:43:06.470Z,20.4
2023-01-24T09:44:08.496Z,20.7
2023-01-24T09:45:11.010Z,20.7
2023-01-24T09:46:13.336Z,20.7
2023-01-24T09:47:15.812Z,20.5
2023-01-24T09:48:18.327Z,20.7
2023-01-24T09:49:20.595Z,20.6
2023-01-24T09:50:23.108Z,20.5
2023-01-24T09:51:27.633Z,20.6
2023-01-24T09:52:30.196Z,20.6
2023-01-24T09:53:32.737Z,20.6
2023-01-24T09:54:35.031Z,20.7
2023-01-24T09:55:37.600Z,20.5
2023-01-24T09:56:40.279Z,20.5
2023-01-24T09:57:42.833Z,20.6
2023-01-24T09:58:45.339Z,20.5
2023-01-24T09:59:48.219Z,20.5
2023-01-24T10:00:50.532Z,20.5
2023-01-24T10:01:52.835Z,20.6
2023-01-24T10:02:55.600Z,20.5
2023-01-24T10:03:58.685Z,20.3
2023-01-24T10:05:01.259Z,20.6
2023-01-24T10:06:03.888Z,20.5
2023-01-24T10:07:06.414Z,20.5
2023-01-24T10:08:08.110Z,20.5
2023-01-24T10:09:10.624Z,20.6
2023-01-24T10:10:13.159Z,20.8
2023-01-24T10:11:15.398Z,20.7
2023-01-24T10:12:18.067Z,20.7
2023-01-24T10:13:20.583Z,20.5
2023-01-24T10:14:23.118Z,20.8
2023-01-24T10:15:25.427Z,20.4
2023-01-24T10:16:27.208Z,20.6
2023-01-24T10:17:29.666Z,20.7
2023-01-24T10:18:32.267Z,20.6
2023-01-24T10:19:34.780Z,20.6
2023-01-24T10:20:37.331Z,20.5
2023-01-24T10:21:39.894Z,20.5
2023-01-24T10:22:42.514Z,20.8
2023-01-24T10:23:45.074Z,20.7
2023-01-24T10:24:47.920Z,20.8
2023-01-24T10:25:50.437Z,20.5
2023-01-24T10:26:52.749Z,20.8
2023-01-24T10:27:55.412Z,20.7
2023-01-24T10:28:57.625Z,20.7
2023-01-24T10:29:59.879Z,20.5
2023-01-24T10:31:02.523Z,20.7
2023-01-24T10:32:05.448Z,20.6
2023-01-24T10:33:07.715Z,20.6
2023-01-24T10:34:09.954Z,20.6
2023-01-24T10:35:12.893Z,20.7
2023-01-24T10:36:15.447Z,20.4
2023-01-24T10:37:18.009Z,20.7
2023-01-24T10:38:20.533Z,20.5
2023-01-24T10:39:23.063Z,20.4
2023-01-24T10:40:25.579Z,20.7
2023-01-24T10:41:28.103Z,20.7
2023-01-24T10:42:30.350Z,20.5
2023-01-24T10:43:33.076Z,20.5
2023-01-24T10:44:35.577Z,20.8
2023-01-24T10:45:38.179Z,20.6
2023-01-24T10:46:40.403Z,20.6
2023-01-24T10:47:42.980Z,20.5
2023-01-24T10:48:44.954Z,20.7
2023-01-24T10:49:46.943Z,20.5
2023-01-24T10:50:49.470Z,20.6
2023-01-24T10:51:51.726Z,20.8
2023-01-24T10:52:54.419Z,20.6
2023-01-24T10:53:56.625Z,20.5
2023-01-24T10:54:58.588Z,20.5
2023-01-24T10:56:00.966Z,20.8
2023-01-24T10:57:03.165Z,20.5
2023-01-24T10:58:05.673Z,20.5
2023-01-24T10:59:08.019Z,20.5
2023-01-24T11:00:10.280Z,20.6
2023-01-24T11:01:13.019Z,20.5
2023-01-24T11:02:15.604Z,20.7
2023-01-24T11:03:17.765Z,20.6
2023-01-24T11:04:19.990Z,20.7
2023-01-24T11:05:22.648Z,20.6
2023-01-24T11:06:26.401Z,20.5
2023-01-24T11:07:28.372Z,20.7
2023-01-24T11:08:30.660Z,20.7
2023-01-24T11:09:33.157Z,20.7
2023-01-24T11:10:35.679Z,20.7
2023-01-24T11:11:38.336Z,20.7
2023-01-24T11:12:40.649Z,20.8
2023-01-24T11:13:43.166Z,20.7
2023-01-24T11:14:45.789Z,20.9
2023-01-24T11:15:48.342Z,20.9
2023-01-24T11:16:50.785Z,20.6
2023-01-24T11:17:53.284Z,20.7
2023-01-24T11:18:55.828Z,20.6
2023-01-24T11:19:58.349Z,20.7
2023-01-24T11:21:00.577Z,20.7
2023-01-24T11:22:02.806Z,20.6
2023-01-24T11:23:05.808Z,20.6
2023-01-24T11:24:08.444Z,20.8
2023-01-24T11:25:10.951Z,20.6
2023-01-24T11:26:13.475Z,20.7
2023-01-24T11:27:16.000Z,20.6
2023-01-24T11:28:18.324Z,20.7
2023-01-24T11:29:20.558Z,20.6
2023-01-24T11:30:23.176Z,20.6
2023-01-24T11:31:28.592Z,20.6
2023-01-24T11:32:31.758Z,20.5
2023-01-24T11:33:34.035Z,20.6
2023-01-24T11:34:36.554Z,20.7
2023-01-24T11:35:39.044Z,20.6
2023-01-24T11:36:41.258Z,20.6
2023-01-24T11:37:43.804Z,20.6
2023-01-24T11:38:46.300Z,20.6
2023-01-24T11:39:48.873Z,20.5
2023-01-24T11:40:51.392Z,20.6
2023-01-24T11:41:53.916Z,20.6
2023-01-24T11:42:56.424Z,20.5
2023-01-24T11:43:59.074Z,20.7
2023-01-24T11:45:01.075Z,20.6
2023-01-24T11:46:03.915Z,20.6
2023-01-24T11:47:06.149Z,20.5
2023-01-24T11:48:08.699Z,20.6
2023-01-24T11:49:10.956Z,20.6
2023-01-24T11:50:13.476Z,20.8
2023-01-24T11:51:15.984Z,20.8
2023-01-24T11:52:18.234Z,20.6
2023-01-24T11:53:20.494Z,20.6
2023-01-24T11:54:23.008Z,20.7
2023-01-24T11:55:25.545Z,20.6
2023-01-24T11:56:28.025Z,20.7
2023-01-24T11:57:30.049Z,20.7
2023-01-24T11:58:32.311Z,20.6
2023-01-24T11:59:34.553Z,20.8
2023-01-24T12:00:36.803Z,20.6
2023-01-24T12:01:39.427Z,20.6
2023-01-24T12:02:42.013Z,20.6
2023-01-24T12:03:44.878Z,20.5
2023-01-24T12:04:47.362Z,20.5
2023-01-24T12:05:49.602Z,20.7
2023-01-24T12:06:52.242Z,20.8
2023-01-24T12:07:54.954Z,20.6
2023-01-24T12:08:57.467Z,20.6
2023-01-24T12:10:00.045Z,20.5
2023-01-24T12:11:17.374Z,20.5
2023-01-24T12:12:07.596Z,20.5
2023-01-24T12:13:10.086Z,20.7
2023-01-24T12:14:12.607Z,20.6
2023-01-24T12:15:14.641Z,20.8
2023-01-24T12:16:16.920Z,20.7
2023-01-24T12:17:24.538Z,20.6
2023-01-24T12:18:24.824Z,20.7
2023-01-24T12:19:27.434Z,20.7
2023-01-24T12:20:31.889Z,20.7
2023-01-24T12:21:36.733Z,20.7
2023-01-24T12:22:38.970Z,20.5
2023-01-24T12:23:43.114Z,20.6
2023-01-24T12:24:45.931Z,20.5
2023-01-24T12:25:48.436Z,20.5
2023-01-24T12:26:50.845Z,20.5
2023-01-24T12:27:53.075Z,20.7
2023-01-24T12:28:55.440Z,20.5
2023-01-24T12:29:57.697Z,20.6
2023-01-24T12:31:00.359Z,20.6
2023-01-24T12:32:03.808Z,20.6
2023-01-24T12:33:06.924Z,20.6
2023-01-24T12:34:09.668Z,20.6
2023-01-24T12:35:11.677Z,20.5
2023-01-24T12:36:14.173Z,20.3
2023-01-24T12:37:16.801Z,20.6
2023-01-24T12:38:19.065Z,20.6
2023-01-24T12:39:21.706Z,20.5
2023-01-24T12:40:24.242Z,20.4
2023-01-24T12:41:27.521Z,20.5
2023-01-24T12:42:30.074Z,20.6
2023-01-24T12:43:32.304Z,20.6
2023-01-24T12:44:34.551Z,20.7
2023-01-24T12:45:36.799Z,20.7
2023-01-24T12:46:38.922Z,20.6
2023-01-24T12:47:41.759Z,20.5
2023-01-24T12:48:44.288Z,20.6
2023-01-24T12:49:46.807Z,20.6
2023-01-24T12:50:49.106Z,20.6
2023-01-24T12:51:51.119Z,20.5
2023-01-24T12:52:53.078Z,20.6
2023-01-24T12:53:55.647Z,20.5
2023-01-24T12:54:58.154Z,20.5
2023-01-24T12:55:59.838Z,20.7
2023-01-24T12:57:02.513Z,20.6
2023-01-24T12:58:04.793Z,20.7
2023-01-24T12:59:07.308Z,20.6
2023-01-24T13:00:09.819Z,20.8
2023-01-24T13:01:12.340Z,20.5
2023-01-24T13:02:14.903Z,20.6
2023-01-24T13:03:17.369Z,20.6
2023-01-24T13:04:20.509Z,20.5
2023-01-24T13:05:23.124Z,20.5
2023-01-24T13:06:25.660Z,20.7
2023-01-24T13:07:28.235Z,20.7
2023-01-24T13:08:30.507Z,20.6
2023-01-24T13:09:33.066Z,20.6
2023-01-24T13:10:35.565Z,20.5
2023-01-24T13:11:38.099Z,20.5
2023-01-24T13:12:40.103Z,20.5
2023-01-24T13:13:42.685Z,20.5
2023-01-24T13:14:44.934Z,20.7
2023-01-24T13:15:47.471Z,20.4
2023-01-24T13:16:49.723Z,20.6
2023-01-24T13:17:52.333Z,20.8
2023-01-24T13:18:54.855Z,20.5
2023-01-24T13:19:57.632Z,20.5
2023-01-24T13:20:59.719Z,20.5
2023-01-24T13:22:02.232Z,20.7
2023-01-24T13:23:04.747Z,20.8
2023-01-24T13:24:07.061Z,20.5
2023-01-24T13:25:10.212Z,20.4
2023-01-24T13:26:13.769Z,20.6
2023-01-24T13:27:16.056Z,20.7
2023-01-24T13:28:18.286Z,20.6
2023-01-24T13:29:20.560Z,20.6
2023-01-24T13:30:23.086Z,20.6
2023-01-24T13:31:25.204Z,20.6
2023-01-24T13:32:28.343Z,20.7
2023-01-24T13:33:31.199Z,20.4
2023-01-24T13:34:33.720Z,20.5
2023-01-24T13:35:36.445Z,20.7
2023-01-24T13:36:38.966Z,20.7
2023-01-24T13:37:41.057Z,20.7
2023-01-24T13:38:43.600Z,20.6
2023-01-24T13:39:46.281Z,20.5
2023-01-24T13:40:48.563Z,20.6
2023-01-24T13:41:50.800Z,20.5
2023-01-24T13:42:52.785Z,20.6
2023-01-24T13:43:55.314Z,20.6
2023-01-24T13:44:57.588Z,20.5
2023-01-24T13:46:01.844Z,20.6
2023-01-24T13:47:05.099Z,20.5
2023-01-24T13:48:07.410Z,20.6
2023-01-24T13:49:09.935Z,20.7
2023-01-24T13:50:12.226Z,20.4
2023-01-24T13:51:14.785Z,20.6
2023-01-24T13:52:17.375Z,20.6
2023-01-24T13:53:19.322Z,20.6
2023-01-24T13:54:21.872Z,20.8
2023-01-24T13:55:24.162Z,20.6
2023-01-24T13:56:26.629Z,20.4
2023-01-24T13:57:28.620Z,20.5